sensor_id;sensor_type;location;lat;lon;timestamp;P1;P2;P0
77878;PMS7003;67071;51.144;17.050;2023-03-05T00:02:58;2;2;1
77878;PMS7003;67071;51.144;17.050;2023-03-05T00:06:15;0;0;0
77878;PMS7003;67071;51.144;17.050;2023-03-05T00:09:30;1;1;0
77878;PMS7003;67071;51.144;17.050;2023-03-05T00:12:44;4;3;1
77878;PMS7003;67071;51.144;17.050;2023-03-05T00:16:01;3;3;2
77878;PMS7003;67071;51.144;17.050;2023-03-05T00:19:17;8;3;2
77878;PMS7003;67071;51.144;17.050;2023-03-05T00:22:33;1;1;1
77878;PMS7003;67071;51.144;17.050;2023-03-05T00:25:48;1;1;1
77878;PMS7003;67071;51.144;17.050;2023-03-05T00:29:03;2;2;2
77878;PMS7003;67071;51.144;17.050;2023-03-05T00:32:19;2;2;1
77878;PMS7003;67071;51.144;17.050;2023-03-05T00:38:58;1;1;0
77878;PMS7003;67071;51.144;17.050;2023-03-05T00:42:22;2;2;2
77878;PMS7003;67071;51.144;17.050;2023-03-05T00:45:36;4;4;3
77878;PMS7003;67071;51.144;17.050;2023-03-05T00:48:52;8;4;3
77878;PMS7003;67071;51.144;17.050;2023-03-05T00:52:07;2;2;2
77878;PMS7003;67071;51.144;17.050;2023-03-05T00:55:22;2;2;1
77878;PMS7003;67071;51.144;17.050;2023-03-05T00:58:37;2;1;1
77878;PMS7003;67071;51.144;17.050;2023-03-05T01:01:51;4;1;1
77878;PMS7003;67071;51.144;17.050;2023-03-05T01:05:12;2;2;1
77878;PMS7003;67071;51.144;17.050;2023-03-05T01:08:28;7;1;1
77878;PMS7003;67071;51.144;17.050;2023-03-05T01:11:42;3;3;2
77878;PMS7003;67071;51.144;17.050;2023-03-05T01:14:57;5;5;3
77878;PMS7003;67071;51.144;17.050;2023-03-05T01:18:14;3;3;2
77878;PMS7003;67071;51.144;17.050;2023-03-05T01:21:29;4;3;1
77878;PMS7003;67071;51.144;17.050;2023-03-05T01:24:43;5;3;1
77878;PMS7003;67071;51.144;17.050;2023-03-05T01:27:58;1;1;1
77878;PMS7003;67071;51.144;17.050;2023-03-05T01:31:12;1;1;0
77878;PMS7003;67071;51.144;17.050;2023-03-05T01:34:27;2;2;1
77878;PMS7003;67071;51.144;17.050;2023-03-05T01:37:42;1;1;1
77878;PMS7003;67071;51.144;17.050;2023-03-05T01:40:57;2;0;0
77878;PMS7003;67071;51.144;17.050;2023-03-05T01:44:23;2;1;1
77878;PMS7003;67071;51.144;17.050;2023-03-05T01:47:40;2;2;1
77878;PMS7003;67071;51.144;17.050;2023-03-05T01:50:55;6;1;1
77878;PMS7003;67071;51.144;17.050;2023-03-05T01:54:10;3;2;1
77878;PMS7003;67071;51.144;17.050;2023-03-05T01:57:39;2;2;2
77878;PMS7003;67071;51.144;17.050;2023-03-05T02:00:59;8;2;1
77878;PMS7003;67071;51.144;17.050;2023-03-05T02:04:16;1;1;0
77878;PMS7003;67071;51.144;17.050;2023-03-05T02:07:33;2;2;1
77878;PMS7003;67071;51.144;17.050;2023-03-05T02:10:54;2;2;1
77878;PMS7003;67071;51.144;17.050;2023-03-05T02:14:14;2;1;1
77878;PMS7003;67071;51.144;17.050;2023-03-05T02:17:33;1;1;0
77878;PMS7003;67071;51.144;17.050;2023-03-05T02:20:51;0;0;0
77878;PMS7003;67071;51.144;17.050;2023-03-05T02:24:34;1;1;0
77878;PMS7003;67071;51.144;17.050;2023-03-05T02:31:23;3;3;2
77878;PMS7003;67071;51.144;17.050;2023-03-05T02:34:42;2;2;1
77878;PMS7003;67071;51.144;17.050;2023-03-05T02:37:58;1;1;1
77878;PMS7003;67071;51.144;17.050;2023-03-05T02:41:22;2;2;2
77878;PMS7003;67071;51.144;17.050;2023-03-05T02:44:40;5;3;3
77878;PMS7003;67071;51.144;17.050;2023-03-05T02:47:55;7;4;3
77878;PMS7003;67071;51.144;17.050;2023-03-05T02:51:10;3;3;2
77878;PMS7003;67071;51.144;17.050;2023-03-05T02:54:25;4;2;2
77878;PMS7003;67071;51.144;17.050;2023-03-05T02:57:39;3;1;1
77878;PMS7003;67071;51.144;17.050;2023-03-05T03:00:54;0;0;0
77878;PMS7003;67071;51.144;17.050;2023-03-05T03:04:11;2;2;1
77878;PMS7003;67071;51.144;17.050;2023-03-05T03:07:26;1;1;1
77878;PMS7003;67071;51.144;17.050;2023-03-05T03:10:41;3;3;2
77878;PMS7003;67071;51.144;17.050;2023-03-05T03:13:59;2;2;1
77878;PMS7003;67071;51.144;17.050;2023-03-05T03:17:23;3;1;1
77878;PMS7003;67071;51.144;17.050;2023-03-05T03:20:37;1;1;0
77878;PMS7003;67071;51.144;17.050;2023-03-05T03:23:53;2;2;1
77878;PMS7003;67071;51.144;17.050;2023-03-05T03:27:08;0;0;0
77878;PMS7003;67071;51.144;17.050;2023-03-05T03:30:26;0;0;0
77878;PMS7003;67071;51.144;17.050;2023-03-05T03:33:40;4;2;1
77878;PMS7003;67071;51.144;17.050;2023-03-05T03:36:55;0;0;0
77878;PMS7003;67071;51.144;17.050;2023-03-05T03:40:15;0;0;0
77878;PMS7003;67071;51.144;17.050;2023-03-05T03:43:30;0;0;0
77878;PMS7003;67071;51.144;17.050;2023-03-05T03:46:48;0;0;0
77878;PMS7003;67071;51.144;17.050;2023-03-05T03:50:07;0;0;0
77878;PMS7003;67071;51.144;17.050;2023-03-05T03:53:25;0;0;0
77878;PMS7003;67071;51.144;17.050;2023-03-05T03:56:47;0;0;0
77878;PMS7003;67071;51.144;17.050;2023-03-05T04:00:02;0;0;0
77878;PMS7003;67071;51.144;17.050;2023-03-05T04:03:20;0;0;0
77878;PMS7003;67071;51.144;17.050;2023-03-05T04:06:35;2;2;2
77878;PMS7003;67071;51.144;17.050;2023-03-05T04:09:52;0;0;0
77878;PMS7003;67071;51.144;17.050;2023-03-05T04:13:06;1;0;0
77878;PMS7003;67071;51.144;17.050;2023-03-05T04:16:22;1;0;0
77878;PMS7003;67071;51.144;17.050;2023-03-05T04:19:56;0;0;0
77878;PMS7003;67071;51.144;17.050;2023-03-05T04:23:11;0;0;0
77878;PMS7003;67071;51.144;17.050;2023-03-05T04:26:25;0;0;0
77878;PMS7003;67071;51.144;17.050;2023-03-05T04:29:40;0;0;0
77878;PMS7003;67071;51.144;17.050;2023-03-05T04:32:55;0;0;0
77878;PMS7003;67071;51.144;17.050;2023-03-05T04:36:15;1;1;0
77878;PMS7003;67071;51.144;17.050;2023-03-05T04:39:29;1;1;0
77878;PMS7003;67071;51.144;17.050;2023-03-05T04:42:44;2;2;1
77878;PMS7003;67071;51.144;17.050;2023-03-05T04:45:59;1;1;0
77878;PMS7003;67071;51.144;17.050;2023-03-05T04:49:20;1;1;1
77878;PMS7003;67071;51.144;17.050;2023-03-05T04:52:36;1;1;1
77878;PMS7003;67071;51.144;17.050;2023-03-05T04:55:55;1;1;1
77878;PMS7003;67071;51.144;17.050;2023-03-05T04:59:10;1;1;1
77878;PMS7003;67071;51.144;17.050;2023-03-05T05:02:27;0;0;0
77878;PMS7003;67071;51.144;17.050;2023-03-05T05:05:41;0;0;0
77878;PMS7003;67071;51.144;17.050;2023-03-05T05:08:56;2;1;1
77878;PMS7003;67071;51.144;17.050;2023-03-05T05:12:11;1;1;0
77878;PMS7003;67071;51.144;17.050;2023-03-05T05:15:26;0;0;0
77878;PMS7003;67071;51.144;17.050;2023-03-05T05:18:44;0;0;0
77878;PMS7003;67071;51.144;17.050;2023-03-05T05:21:58;1;1;0
77878;PMS7003;67071;51.144;17.050;2023-03-05T05:25:16;1;1;1
77878;PMS7003;67071;51.144;17.050;2023-03-05T05:29:05;0;0;0
77878;PMS7003;67071;51.144;17.050;2023-03-05T05:32:21;1;1;0
77878;PMS7003;67071;51.144;17.050;2023-03-05T05:35:38;0;0;0
77878;PMS7003;67071;51.144;17.050;2023-03-05T05:38:52;2;1;0
77878;PMS7003;67071;51.144;17.050;2023-03-05T05:42:09;1;1;1
77878;PMS7003;67071;51.144;17.050;2023-03-05T05:45:24;0;0;0
77878;PMS7003;67071;51.144;17.050;2023-03-05T05:48:39;0;0;0
77878;PMS7003;67071;51.144;17.050;2023-03-05T05:51:54;0;0;0
77878;PMS7003;67071;51.144;17.050;2023-03-05T05:55:11;0;0;0
77878;PMS7003;67071;51.144;17.050;2023-03-05T05:58:35;5;2;1
77878;PMS7003;67071;51.144;17.050;2023-03-05T06:01:51;2;1;0
77878;PMS7003;67071;51.144;17.050;2023-03-05T06:05:06;1;1;0
77878;PMS7003;67071;51.144;17.050;2023-03-05T06:08:24;6;2;1
77878;PMS7003;67071;51.144;17.050;2023-03-05T06:11:39;1;1;1
77878;PMS7003;67071;51.144;17.050;2023-03-05T06:14:54;2;2;2
77878;PMS7003;67071;51.144;17.050;2023-03-05T06:18:11;1;1;1
77878;PMS7003;67071;51.144;17.050;2023-03-05T06:21:25;1;1;1
77878;PMS7003;67071;51.144;17.050;2023-03-05T06:24:40;3;3;3
77878;PMS7003;67071;51.144;17.050;2023-03-05T06:27:55;4;4;3
77878;PMS7003;67071;51.144;17.050;2023-03-05T06:31:22;3;3;2
77878;PMS7003;67071;51.144;17.050;2023-03-05T06:34:41;3;3;2
77878;PMS7003;67071;51.144;17.050;2023-03-05T06:37:56;9;7;5
77878;PMS7003;67071;51.144;17.050;2023-03-05T06:41:15;7;4;3
77878;PMS7003;67071;51.144;17.050;2023-03-05T06:44:31;5;2;1
77878;PMS7003;67071;51.144;17.050;2023-03-05T06:47:46;9;4;3
77878;PMS7003;67071;51.144;17.050;2023-03-05T06:51:01;6;5;4
77878;PMS7003;67071;51.144;17.050;2023-03-05T06:54:21;6;6;4
77878;PMS7003;67071;51.144;17.050;2023-03-05T06:57:38;5;3;1
77878;PMS7003;67071;51.144;17.050;2023-03-05T07:00:53;6;6;3
77878;PMS7003;67071;51.144;17.050;2023-03-05T07:04:08;7;4;3
77878;PMS7003;67071;51.144;17.050;2023-03-05T07:07:24;5;4;3
77878;PMS7003;67071;51.144;17.050;2023-03-05T07:10:39;2;2;1
77878;PMS7003;67071;51.144;17.050;2023-03-05T07:14:04;4;4;3
77878;PMS7003;67071;51.144;17.050;2023-03-05T07:17:19;5;3;2
77878;PMS7003;67071;51.144;17.050;2023-03-05T07:20:37;6;6;3
77878;PMS7003;67071;51.144;17.050;2023-03-05T07:23:59;7;6;4
77878;PMS7003;67071;51.144;17.050;2023-03-05T07:27:15;7;3;1
77878;PMS7003;67071;51.144;17.050;2023-03-05T07:30:30;10;7;4
77878;PMS7003;67071;51.144;17.050;2023-03-05T07:33:49;6;5;4
77878;PMS7003;67071;51.144;17.050;2023-03-05T07:37:06;5;5;3
77878;PMS7003;67071;51.144;17.050;2023-03-05T07:40:21;3;3;2
77878;PMS7003;67071;51.144;17.050;2023-03-05T07:43:39;3;3;2
77878;PMS7003;67071;51.144;17.050;2023-03-05T07:46:55;2;2;2
77878;PMS7003;67071;51.144;17.050;2023-03-05T07:50:23;2;2;1
77878;PMS7003;67071;51.144;17.050;2023-03-05T07:53:39;1;1;0
77878;PMS7003;67071;51.144;17.050;2023-03-05T07:56:54;0;0;0
77878;PMS7003;67071;51.144;17.050;2023-03-05T08:00:10;1;1;0
77878;PMS7003;67071;51.144;17.050;2023-03-05T08:03:26;3;3;2
77878;PMS7003;67071;51.144;17.050;2023-03-05T08:06:40;3;2;2
77878;PMS7003;67071;51.144;17.050;2023-03-05T08:09:55;1;1;0
77878;PMS7003;67071;51.144;17.050;2023-03-05T08:13:10;1;1;0
77878;PMS7003;67071;51.144;17.050;2023-03-05T08:16:29;3;2;1
77878;PMS7003;67071;51.144;17.050;2023-03-05T08:19:45;1;1;0
77878;PMS7003;67071;51.144;17.050;2023-03-05T08:23:02;0;0;0
77878;PMS7003;67071;51.144;17.050;2023-03-05T08:26:22;0;0;0
77878;PMS7003;67071;51.144;17.050;2023-03-05T08:29:48;0;0;0
77878;PMS7003;67071;51.144;17.050;2023-03-05T08:33:04;5;0;0
77878;PMS7003;67071;51.144;17.050;2023-03-05T08:36:17;2;0;0
77878;PMS7003;67071;51.144;17.050;2023-03-05T08:39:32;2;2;0
77878;PMS7003;67071;51.144;17.050;2023-03-05T08:42:53;4;1;0
77878;PMS7003;67071;51.144;17.050;2023-03-05T08:46:18;0;0;0
77878;PMS7003;67071;51.144;17.050;2023-03-05T08:49:32;2;0;0
77878;PMS7003;67071;51.144;17.050;2023-03-05T08:52:49;0;0;0
77878;PMS7003;67071;51.144;17.050;2023-03-05T08:56:06;1;1;0
77878;PMS7003;67071;51.144;17.050;2023-03-05T08:59:25;3;2;0
77878;PMS7003;67071;51.144;17.050;2023-03-05T09:02:41;2;0;0
77878;PMS7003;67071;51.144;17.050;2023-03-05T09:06:01;12;5;4
77878;PMS7003;67071;51.144;17.050;2023-03-05T09:09:17;4;2;2
77878;PMS7003;67071;51.144;17.050;2023-03-05T09:12:43;0;0;0
77878;PMS7003;67071;51.144;17.050;2023-03-05T09:15:59;3;2;2
77878;PMS7003;67071;51.144;17.050;2023-03-05T09:19:18;1;0;0
77878;PMS7003;67071;51.144;17.050;2023-03-05T09:22:31;2;1;1
77878;PMS7003;67071;51.144;17.050;2023-03-05T09:25:49;9;3;2
77878;PMS7003;67071;51.144;17.050;2023-03-05T09:29:07;6;5;3
77878;PMS7003;67071;51.144;17.050;2023-03-05T09:32:25;5;2;1
77878;PMS7003;67071;51.144;17.050;2023-03-05T09:35:49;4;4;2
77878;PMS7003;67071;51.144;17.050;2023-03-05T09:39:05;2;2;1
77878;PMS7003;67071;51.144;17.050;2023-03-05T09:46:15;2;2;2
77878;PMS7003;67071;51.144;17.050;2023-03-05T09:50:13;5;3;2
77878;PMS7003;67071;51.144;17.050;2023-03-05T09:53:44;4;1;0
77878;PMS7003;67071;51.144;17.050;2023-03-05T09:57:13;5;3;1
77878;PMS7003;67071;51.144;17.050;2023-03-05T10:07:29;8;4;3
77878;PMS7003;67071;51.144;17.050;2023-03-05T10:10:52;2;2;1
77878;PMS7003;67071;51.144;17.050;2023-03-05T10:14:11;7;5;4
77878;PMS7003;67071;51.144;17.050;2023-03-05T10:32:05;2;2;1
77878;PMS7003;67071;51.144;17.050;2023-03-05T10:39:25;2;0;0
77878;PMS7003;67071;51.144;17.050;2023-03-05T10:43:00;1;1;1
77878;PMS7003;67071;51.144;17.050;2023-03-05T10:49:47;1;1;0
77878;PMS7003;67071;51.144;17.050;2023-03-05T11:02:27;1;1;0
77878;PMS7003;67071;51.144;17.050;2023-03-05T11:30:43;10;5;4
77878;PMS7003;67071;51.144;17.050;2023-03-05T11:37:22;3;1;0
77878;PMS7003;67071;51.144;17.050;2023-03-05T11:40:48;3;3;2
77878;PMS7003;67071;51.144;17.050;2023-03-05T12:08:39;4;4;2
77878;PMS7003;67071;51.144;17.050;2023-03-05T12:12:12;1;0;0
77878;PMS7003;67071;51.144;17.050;2023-03-05T12:16:00;2;2;1
77878;PMS7003;67071;51.144;17.050;2023-03-05T12:19:30;1;1;0
77878;PMS7003;67071;51.144;17.050;2023-03-05T12:22:57;1;0;0
77878;PMS7003;67071;51.144;17.050;2023-03-05T12:26:52;1;1;1
77878;PMS7003;67071;51.144;17.050;2023-03-05T12:30:03;1;0;0
77878;PMS7003;67071;51.144;17.050;2023-03-05T12:33:40;1;0;0
77878;PMS7003;67071;51.144;17.050;2023-03-05T12:44:22;0;0;0
77878;PMS7003;67071;51.144;17.050;2023-03-05T12:47:45;0;0;0
77878;PMS7003;67071;51.144;17.050;2023-03-05T12:51:28;2;2;2
77878;PMS7003;67071;51.144;17.050;2023-03-05T12:54:54;1;1;0
77878;PMS7003;67071;51.144;17.050;2023-03-05T13:01:45;2;0;0
77878;PMS7003;67071;51.144;17.050;2023-03-05T13:05:16;1;0;0
77878;PMS7003;67071;51.144;17.050;2023-03-05T13:08:38;1;1;0
77878;PMS7003;67071;51.144;17.050;2023-03-05T13:11:54;1;1;0
77878;PMS7003;67071;51.144;17.050;2023-03-05T13:15:12;2;1;1
77878;PMS7003;67071;51.144;17.050;2023-03-05T13:18:31;3;2;1
77878;PMS7003;67071;51.144;17.050;2023-03-05T13:22:26;1;1;0
77878;PMS7003;67071;51.144;17.050;2023-03-05T13:30:26;2;1;0
77878;PMS7003;67071;51.144;17.050;2023-03-05T13:34:53;2;0;0
77878;PMS7003;67071;51.144;17.050;2023-03-05T13:39:55;3;0;0
77878;PMS7003;67071;51.144;17.050;2023-03-05T18:19:04;18;11;6
77878;PMS7003;67071;51.144;17.050;2023-03-05T18:22:17;9;8;4
77878;PMS7003;67071;51.144;17.050;2023-03-05T18:25:31;6;5;4
77878;PMS7003;67071;51.144;17.050;2023-03-05T18:29:06;7;7;3
77878;PMS7003;67071;51.144;17.050;2023-03-05T18:32:21;10;8;6
77878;PMS7003;67071;51.144;17.050;2023-03-05T18:35:39;4;4;2
77878;PMS7003;67071;51.144;17.050;2023-03-05T18:38:54;7;5;4
77878;PMS7003;67071;51.144;17.050;2023-03-05T18:42:12;11;7;5
77878;PMS7003;67071;51.144;17.050;2023-03-05T18:46:01;11;7;5
77878;PMS7003;67071;51.144;17.050;2023-03-05T18:49:21;7;7;5
77878;PMS7003;67071;51.144;17.050;2023-03-05T18:52:36;14;13;8
77878;PMS7003;67071;51.144;17.050;2023-03-05T18:55:51;13;12;8
77878;PMS7003;67071;51.144;17.050;2023-03-05T18:59:06;22;21;13
77878;PMS7003;67071;51.144;17.050;2023-03-05T19:02:21;10;8;6
77878;PMS7003;67071;51.144;17.050;2023-03-05T19:05:37;8;8;5
77878;PMS7003;67071;51.144;17.050;2023-03-05T19:08:52;10;7;5
77878;PMS7003;67071;51.144;17.050;2023-03-05T19:12:13;18;17;12
77878;PMS7003;67071;51.144;17.050;2023-03-05T19:15:49;13;13;8
77878;PMS7003;67071;51.144;17.050;2023-03-05T19:19:07;10;7;5
77878;PMS7003;67071;51.144;17.050;2023-03-05T19:22:39;11;10;8
77878;PMS7003;67071;51.144;17.050;2023-03-05T19:25:55;11;9;7
77878;PMS7003;67071;51.144;17.050;2023-03-05T19:29:11;8;6;5
77878;PMS7003;67071;51.144;17.050;2023-03-05T19:32:26;9;8;6
77878;PMS7003;67071;51.144;17.050;2023-03-05T19:35:41;8;8;5
77878;PMS7003;67071;51.144;17.050;2023-03-05T19:38:56;14;8;6
77878;PMS7003;67071;51.144;17.050;2023-03-05T19:42:10;9;9;7
77878;PMS7003;67071;51.144;17.050;2023-03-05T19:45:25;14;10;7
77878;PMS7003;67071;51.144;17.050;2023-03-05T19:48:47;7;7;5
77878;PMS7003;67071;51.144;17.050;2023-03-05T19:52:01;9;8;6
77878;PMS7003;67071;51.144;17.050;2023-03-05T19:55:19;10;10;6
77878;PMS7003;67071;51.144;17.050;2023-03-05T19:58:34;10;9;5
77878;PMS7003;67071;51.144;17.050;2023-03-05T20:01:50;11;8;6
77878;PMS7003;67071;51.144;17.050;2023-03-05T20:05:05;9;8;6
77878;PMS7003;67071;51.144;17.050;2023-03-05T20:08:23;6;6;4
77878;PMS7003;67071;51.144;17.050;2023-03-05T20:11:39;4;4;3
77878;PMS7003;67071;51.144;17.050;2023-03-05T20:14:56;6;5;4
77878;PMS7003;67071;51.144;17.050;2023-03-05T20:18:12;8;6;5
77878;PMS7003;67071;51.144;17.050;2023-03-05T20:21:29;22;18;11
77878;PMS7003;67071;51.144;17.050;2023-03-05T20:22:11;21;19;11
